Weather reports worldwide

Advertisment
Wasserkuppe, Germany (10544): temperature & dewpoint: 19.09.2018 12:00:00 - 25.09.2018 12:00:00 (CEST)Wasserkuppe, Germany (10544): temperature 5cm & temperature -5cm: 19.09.2018 12:00:00 - 25.09.2018 12:00:00 (CEST)Wasserkuppe, Germany (10544): temperature -20cm & temperature -100cm: 19.09.2018 12:00:00 - 25.09.2018 12:00:00 (CEST)Wasserkuppe, Germany (10544): wind speed & gusts: 19.09.2018 12:00:00 - 25.09.2018 12:00:00 (CEST)Wasserkuppe, Germany (10544): wind direction: 19.09.2018 12:00:00 - 25.09.2018 12:00:00 (CEST)Wasserkuppe, Germany (10544): visibility: 19.09.2018 12:00:00 - 25.09.2018 12:00:00 (CEST)Wasserkuppe, Germany (10544): sunshine duration: 19.09.2018 12:00:00 - 25.09.2018 12:00:00 (CEST)Wasserkuppe, Germany (10544): precipitation: 19.09.2018 12:00:00 - 25.09.2018 12:00:00 (CEST)
Date & Time tt [°C] td [°C] tt 5cm [°C] tt -5cm [°C] tt -20cm [°C] tt -100cm [°C] ff [km/h] ff [kn] fx [km/h] fx [kn] dd vv [km] sd [min] rr [mm]
25.09.2018 12:00:00 5,2 1,6 6,6 8,2 10,3 13,2 15 8 24 13 N 60 14 0,0
25.09.2018 11:00:00 5,8 2,2 8,1 6,9 10,4 13,2 16 8 29 16 N 45 35 0,0
25.09.2018 10:00:00 3,4 2,2 4,0 5,9 10,4 13,2 20 11 29 16 N 30 45 0,0
25.09.2018 09:00:00 2,6 2,4 1,9 5,7 10,5 13,2 20 11 29 15 N 15 12 0,0
25.09.2018 08:00:00 1,9 1,8 1,6 5,9 10,6 13,2 22 12 29 16 NNW 0,6 0 0,0
25.09.2018 07:00:00 2,0 1,9 1,9 6,0 10,7 13,2 19 10 26 14 NNW 0,2 0 0,0
25.09.2018 06:00:00 2,2 2,1 2,2 6,2 10,8 13,2 18 10 26 14 NNW 0,2 0 0,0
25.09.2018 05:00:00 2,3 2,2 2,2 6,3 10,9 13,2 19 10 30 16 NW 0,2 0 0,0
25.09.2018 04:00:00 2,4 2,3 2,4 6,4 11,0 13,2 19 11 28 15 NW 0,3 0 0,0
25.09.2018 03:00:00 2,6 2,5 2,5 6,5 11,1 13,2 19 10 29 16 NW 0,2 0 0,0
25.09.2018 02:00:00 2,7 2,5 2,6 6,6 11,2 13,2 20 11 30 16 NW 0,3 0 0,0
25.09.2018 01:00:00 2,8 2,1 2,5 6,8 11,3 13,3 24 13 38 21 NNW 25 0 0,0
25.09.2018 00:00:00 2,8 2,1 2,4 7,2 11,3 13,3 27 15 36 19 NNW 40 0 0,0
24.09.2018 23:00:00 3,2 2,7 2,9 7,4 11,4 13,3 23 12 35 19 NW 45 0 0,0
24.09.2018 22:00:00 3,2 2,2 2,9 7,8 11,4 13,3 25 13 41 22 NW 60 0 0,0
24.09.2018 21:00:00 4,1 2,3 3,8 8,3 11,4 13,3 29 15 41 22 NW 50 0 0,0
24.09.2018 20:00:00 4,5 1,2 4,1 8,9 11,4 13,3 26 14 47 25 NW 80 0 0,0
24.09.2018 19:00:00 5,4 1,6 4,9 9,8 11,3 13,3 34 18 48 26 NW 60 9 0,0
24.09.2018 18:00:00 6,1 2,3 5,5 10,4 11,3 13,3 23 13 46 25 WNW 60 35 0,0
24.09.2018 17:00:00 7,1 2,4 8,3 10,8 11,2 13,3 22 12 48 26 WNW 55 28 0,0
24.09.2018 16:00:00 6,5 1,4 7,0 10,9 11,1 13,3 23 12 44 24 WNW 45 31 0,0
24.09.2018 15:00:00 6,2 1,9 7,3 10,5 11,1 13,3 29 15 44 24 WNW 40 34 0,1
24.09.2018 14:00:00 6,5 1,8 8,9 9,5 11,2 13,3 27 14 49 26 WNW 45 39 0,0
24.09.2018 13:00:00 5,8 2,5 8,1 8,6 11,2 13,3 26 14 40 22 NW 40 22 0,0
24.09.2018 12:00:00 4,9 4,0 6,1 7,7 11,3 13,3 29 15 46 25 NW 45 7 0,0
24.09.2018 11:00:00 3,5 3,5 4,2 7,3 11,4 13,3 26 14 47 25 WNW 35 1 0,0
24.09.2018 10:00:00 2,9 2,9 3,4 6,9 11,5 13,3 23 13 38 21 WNW 0,1 0 0,0
24.09.2018 09:00:00 2,5 2,5 2,7 6,8 11,6 13,3 24 13 36 19 WNW 0,1 0 0,0
24.09.2018 08:00:00 2,4 2,4 2,5 6,9 11,7 13,3 24 13 38 21 WNW 0,1 0 0,0
24.09.2018 07:00:00 2,6 2,6 2,6 7,1 11,9 13,3 26 14 41 22 NW 0,1 0 0,0
24.09.2018 06:00:00 2,7 2,7 2,8 7,2 12,0 13,3 24 13 40 22 WNW 0,1 0 0,0
24.09.2018 05:00:00 2,9 2,9 3,0 7,4 12,1 13,3 24 13 39 21 WNW 0,1 0 0,0
24.09.2018 04:00:00 3,1 3,1 3,1 7,5 12,2 13,3 28 15 44 24 NW 0,1 0 0,0
24.09.2018 03:00:00 3,2 3,2 3,2 7,7 12,3 13,3 36 19 59 32 NW 0,2 0 0,0
24.09.2018 02:00:00 3,1 3,1 3,1 7,9 12,4 13,3 35 19 55 30 NW 0,1 0 0,0
24.09.2018 01:00:00 2,9 2,9 2,8 8,2 12,5 13,3 39 21 58 31 NW 0,5 0 0,0
24.09.2018 00:00:00 2,8 2,8 2,8 8,6 12,6 13,3 42 23 70 38 NNW 0,4 0 0,0
23.09.2018 23:00:00 2,9 2,9 2,9 9,2 12,7 13,3 51 28 67 36 NNW 0,1 0 0,0
23.09.2018 22:00:00 3,6 3,6 3,5 9,8 12,7 13,3 49 26 69 38 NNW 0,1 0 0,9
23.09.2018 21:00:00 4,6 4,6 4,5 10,5 12,7 13,3 55 30 73 39 NNW 0,3 0 1,6
23.09.2018 20:00:00 5,9 5,9 5,8 11,3 12,7 13,3 51 28 71 38 NNW 0,2 0 1,6
23.09.2018 19:00:00 7,7 7,7 7,6 11,9 12,7 13,3 34 18 55 30 NW 0,2 0 0,1
23.09.2018 18:00:00 8,8 8,8 8,9 12,2 12,6 13,3 19 10 61 33 NNW 0,2 0 18,4
23.09.2018 17:00:00 10,9 10,9 10,6 12,5 12,6 13,3 39 21 121 65 NW 0,4 0 6,1
23.09.2018 16:00:00 14,3 14,3 14,1 12,0 12,6 13,3 61 33 89 48 SSW 0,4 0 0,2
23.09.2018 15:00:00 13,7 13,7 13,5 11,6 12,6 13,3 57 31 82 44 SSW 0,1 0 0,9
23.09.2018 14:00:00 12,2 12,2 12,2 11,1 12,6 13,3 41 22 54 29 SSW 0,2 0 2,3
23.09.2018 13:00:00 11,4 11,4 11,4 10,5 12,6 13,3 34 18 52 28 SSW 0,3 0 1,5
23.09.2018 12:00:00 10,5 10,5 10,6 9,9 12,7 13,3 34 18 45 25 SSW 0,2 0 1,6
23.09.2018 11:00:00 8,6 8,6 8,8 9,4 12,8 13,3 27 14 33 18 SSW 0,3 0 1,4
23.09.2018 10:00:00 7,4 7,4 7,6 9,1 12,9 13,3 23 13 29 16 S 0,2 0 0,7
23.09.2018 09:00:00 6,8 6,8 6,8 8,9 12,9 13,3 24 13 34 18 S 0,2 0 0,2
23.09.2018 08:00:00 6,2 6,2 6,2 8,9 13,0 13,3 27 14 34 18 S 0,2 0 0,9
23.09.2018 07:00:00 5,9 5,9 5,9 9,0 13,1 13,3 27 14 36 20 S 0,3 0 1,1
23.09.2018 06:00:00 6,0 5,9 5,9 9,0 13,2 13,3 28 15 44 24 S 0,1 0 0,3
23.09.2018 05:00:00 5,8 5,7 5,7 9,1 13,3 13,3 31 17 38 21 S 0,1 0 0,3
23.09.2018 04:00:00 5,7 5,6 5,7 9,2 13,4 13,3 24 13 32 17 SSW 0,1 0 0,1
23.09.2018 03:00:00 5,6 5,2 5,5 9,4 13,5 13,3 23 12 33 18 SW 15 0 0,2
23.09.2018 02:00:00 5,6 4,8 5,2 9,5 13,6 13,3 18 10 24 13 SW 60 0 0,2
23.09.2018 01:00:00 5,7 4,9 5,3 9,7 13,7 13,3 18 10 27 14 SW 60 0 0,0
23.09.2018 00:00:00 5,8 5,1 5,4 10,0 13,8 13,3 16 9 26 14 WSW 45 0 0,1
22.09.2018 23:00:00 5,8 5,0 5,4 10,3 13,8 13,3 18 10 34 19 WSW 30 0 0,2
22.09.2018 22:00:00 6,3 4,8 5,8 10,7 13,9 13,3 21 11 43 23 WSW 60 0 0,0
22.09.2018 21:00:00 7,1 3,6 6,0 11,2 13,9 13,3 32 17 46 25 WSW 45 0 0,0
22.09.2018 20:00:00 7,4 4,7 6,3 11,8 13,8 13,3 26 14 34 18 SW 45 0 0,0
22.09.2018 19:00:00 7,0 5,5 6,4 12,4 13,8 13,3 22 12 39 21 SSW 35 0 0,4
22.09.2018 18:00:00 8,4 5,7 7,9 13,0 13,7 13,3 23 13 33 18 SSW 15 0 0,2
22.09.2018 17:00:00 9,0 5,0 8,7 13,7 13,6 13,3 21 12 37 20 WSW 40 0 0,0
22.09.2018 16:00:00 10,1 4,1 11,2 13,9 13,6 13,3 24 13 42 23 WSW 55 15 0,0
22.09.2018 15:00:00 10,4 4,1 11,3 13,5 13,6 13,3 29 15 44 24 SW 50 31 0,0
22.09.2018 14:00:00 11,1 4,3 12,5 12,6 13,7 13,3 25 14 40 22 WSW 55 45 0,0
22.09.2018 13:00:00 9,7 5,8 11,2 10,9 13,8 13,3 25 14 39 21 SW 45 28 0,0
22.09.2018 12:00:00 7,5 5,7 7,9 9,8 13,9 13,3 23 12 32 17 WSW 35 4 0,0
22.09.2018 11:00:00 6,1 5,0 6,5 9,2 14,0 13,3 21 11 31 17 WSW 35 1 0,0
22.09.2018 10:00:00 5,7 4,9 6,0 8,5 14,2 13,3 19 10 31 17 WSW 30 0 0,0
22.09.2018 09:00:00 4,7 4,0 4,8 8,2 14,4 13,3 19 10 34 19 WSW 30 3 0,0
22.09.2018 08:00:00 4,4 3,6 4,1 8,3 14,6 13,3 23 12 35 19 W 45 10 0,0
22.09.2018 07:00:00 4,7 3,5 4,6 8,4 14,8 13,3 23 12 39 21 W 50 0 0,0
22.09.2018 06:00:00 5,1 3,5 4,9 8,5 15,0 13,3 29 15 42 23 WSW 50 0 0,0
22.09.2018 05:00:00 5,0 3,3 4,9 8,5 15,2 13,3 29 16 42 23 WSW 50 0 0,0
22.09.2018 04:00:00 5,2 3,4 5,0 8,6 15,4 13,3 31 17 45 24 WSW 50 0 0,0
22.09.2018 03:00:00 4,7 2,8 3,7 9,0 15,7 13,3 29 16 46 25 WSW 50 0 0,0
22.09.2018 02:00:00 4,6 3,0 3,7 9,6 15,9 13,3 27 15 44 24 W 50 0 0,0
22.09.2018 01:00:00 5,0 3,2 4,0 10,3 16,0 13,3 29 15 43 23 WSW 50 0 0,0
22.09.2018 00:00:00 5,2 3,5 4,2 11,1 16,2 13,3 25 13 41 22 W 50 0 0,0
21.09.2018 23:00:00 5,8 4,6 4,9 11,9 16,4 13,3 32 18 46 25 WSW 45 0 0,0
21.09.2018 22:00:00 6,1 5,5 5,3 12,7 16,5 13,3 26 14 41 22 W 35 0 0,0
21.09.2018 21:00:00 7,5 7,4 7,4 13,2 16,6 13,3 23 12 39 21 W 0,2 0 0,0
21.09.2018 20:00:00 7,6 7,5 7,5 13,8 16,7 13,3 22 12 51 28 W 0,1 0 0,0
21.09.2018 19:00:00 7,6 7,5 7,5 14,7 16,7 13,3 28 15 45 25 W 0,7 0 0,1
21.09.2018 18:00:00 7,7 7,5 7,7 15,4 16,7 13,3 23 12 48 26 W 0,3 0 2,6
21.09.2018 17:00:00 7,8 7,6 7,8 16,3 16,7 13,3 29 15 56 30 W 0,6 0 5,3
21.09.2018 16:00:00 13,2 12,3 12,7 19,0 16,6 13,3 47 25 77 42 SW 15 0 0,3
21.09.2018 15:00:00 18,1 8,9 18,7 19,2 16,5 13,3 55 30 87 47 SW 45 0 0,0
21.09.2018 14:00:00 18,3 9,5 19,0 18,7 16,5 13,3 43 23 69 37 SSW 45 15 0,0
21.09.2018 13:00:00 18,6 11,8 19,2 17,6 16,5 13,3 40 22 63 34 SW 40 21 0,0
21.09.2018 12:00:00 18,3 11,9 18,8 16,6 16,6 13,3 44 24 67 36 SSW 40 3 0,0
21.09.2018 11:00:00 18,2 10,9 18,8 15,8 16,7 13,3 49 26 79 42 SSW 40 7 0,0
21.09.2018 10:00:00 19,1 9,4 18,6 14,8 16,8 13,3 48 26 74 40 SSW 50 51 0,0
21.09.2018 09:00:00 18,1 9,9 16,5 14,5 17,0 13,3 43 23 60 33 S 55 42 0,0
21.09.2018 08:00:00 16,6 10,6 14,1 14,6 17,1 13,3 38 20 51 28 SSW 45 3 0,0
21.09.2018 07:00:00 16,6 10,6 14,4 14,8 17,2 13,3 37 20 53 29 SSW 45 0 0,0
21.09.2018 06:00:00 16,4 9,3 13,7 15,1 17,4 13,3 39 21 61 33 SSW 45 0 0,0
21.09.2018 05:00:00 16,8 9,4 14,7 15,4 17,5 13,3 42 23 53 29 S 50 0 0,0
21.09.2018 04:00:00 16,0 9,3 14,0 15,7 17,6 13,3 37 20 47 25 S 50 0 0,0
21.09.2018 03:00:00 16,7 9,1 14,8 16,1 17,8 13,3 37 20 46 25 S 50 0 0,0
21.09.2018 02:00:00 17,5 9,2 15,1 16,5 17,9 13,3 39 21 48 26 S 55 0 0,0
21.09.2018 01:00:00 17,3 10,0 14,6 16,9 18,0 13,3 35 19 50 27 S 55 0 0,0
21.09.2018 00:00:00 17,6 10,2 14,5 17,5 18,1 13,3 36 19 48 26 S 55 0 0,0
20.09.2018 23:00:00 16,6 10,2 13,4 18,2 18,1 13,3 34 18 45 24 SSW 55 0 0,0
20.09.2018 22:00:00 17,3 9,7 14,2 19,1 18,0 13,3 33 18 43 23 SSW 60 0 0,0
20.09.2018 21:00:00 16,3 8,2 12,7 20,3 17,9 13,3 27 15 33 18 S 70 0 0,0
20.09.2018 20:00:00 16,6 7,9 13,8 21,7 17,7 13,3 23 12 26 14 S 70 0 0,0
20.09.2018 19:00:00 18,7 7,2 16,9 23,2 17,5 13,2 21 12 32 17 SSW 70 35 0,0
20.09.2018 18:00:00 21,7 6,5 22,0 24,2 17,2 13,2 21 11 33 18 SSW 70 60 0,0
20.09.2018 17:00:00 23,1 6,6 25,0 24,5 17,0 13,2 31 17 42 23 SSW 60 59 0,0
20.09.2018 16:00:00 24,1 8,9 25,7 24,1 16,8 13,2 28 15 46 25 SW 60 60 0,0
20.09.2018 15:00:00 23,6 9,5 25,4 23,1 16,6 13,2 35 19 48 26 SSW 60 60 0,0
20.09.2018 14:00:00 23,1 10,5 25,7 21,6 16,6 13,2 34 19 46 25 SSW 50 59 0,0
20.09.2018 13:00:00 21,9 12,3 23,4 19,9 16,6 13,2 29 16 43 23 SSW 50 51 0,0
20.09.2018 12:00:00 20,5 12,3 22,1 18,3 16,6 13,2 31 17 43 23 SSW 50 58 0,0
20.09.2018 11:00:00 19,9 12,5 22,4 16,3 16,7 13,3 30 16 39 21 SSW 50 59 0,0
20.09.2018 10:00:00 17,4 12,5 17,5 15,3 16,9 13,3 25 14 31 17 SSW 50 45 0,0
20.09.2018 09:00:00 16,8 12,3 16,2 14,8 17,0 13,3 22 12 28 15 SSW 50 42 0,0
20.09.2018 08:00:00 15,0 12,0 14,0 14,7 17,1 13,3 19 10 23 12 SSW 50 13 0,0
20.09.2018 07:00:00 14,4 11,3 12,0 14,9 17,3 13,3 18 10 22 12 SW 50 0 0,0
20.09.2018 06:00:00 14,7 11,5 12,0 15,3 17,4 13,3 19 10 22 12 SW 45 0 0,0
20.09.2018 05:00:00 14,1 11,4 10,8 15,7 17,5 13,3 17 9 19 11 SW 45 0 0,0
20.09.2018 04:00:00 14,3 11,3 10,7 16,3 17,7 13,3 13 7 17 9 SW 45 0 0,0
20.09.2018 03:00:00 15,5 11,8 13,9 16,8 17,8 13,3 13 7 23 13 W 50 0 0,0
20.09.2018 02:00:00 16,0 11,6 14,3 17,3 17,8 13,3 15 8 23 13 W 55 0 0,0
20.09.2018 01:00:00 16,5 11,3 14,2 17,8 17,9 13,3 17 9 32 17 WSW 60 0 0,0
20.09.2018 00:00:00 16,9 11,2 14,7 18,5 17,9 13,3 23 12 37 20 SW 60 0 0,0
19.09.2018 23:00:00 17,7 11,1 16,4 19,2 17,9 13,3 24 13 36 20 SW 60 0 0,0
19.09.2018 22:00:00 18,2 11,0 16,6 20,1 17,9 13,3 29 15 39 21 SW 65 0 0,0
19.09.2018 21:00:00 18,6 10,6 16,9 21,1 17,7 13,3 27 15 41 22 SSW 70 0 0,0
19.09.2018 20:00:00 18,9 10,5 16,4 22,5 17,5 13,3 24 13 31 17 SSW 70 0 0,0
19.09.2018 19:00:00 21,0 10,4 20,2 23,7 17,3 13,3 23 12 36 20 SW 60 43 0,0
19.09.2018 18:00:00 21,8 10,5 22,1 24,4 17,0 13,3 29 16 44 24 SSW 60 56 0,0
19.09.2018 17:00:00 22,7 10,1 23,0 24,7 16,7 13,3 35 19 45 24 SSW 60 47 0,0
19.09.2018 16:00:00 22,4 10,9 22,6 24,7 16,4 13,3 29 16 46 25 SW 55 43 0,0
19.09.2018 15:00:00 24,4 11,6 27,4 23,9 16,2 13,3 29 15 42 23 SSW 50 60 0,0
19.09.2018 14:00:00 23,1 11,0 26,5 22,4 16,1 13,3 31 17 46 25 SSW 45 60 0,0
19.09.2018 13:00:00 23,3 11,0 24,7 20,6 16,1 13,3 27 15 42 23 SSW 45 57 0,0
19.09.2018 12:00:00 22,8 10,3 24,8 18,5 16,2 13,3 20 11 31 17 SW 45 60 0,0

tt = temperature
td = dewpoint
tt 5cm = temperature 5cm
tt -5cm = temperature -5cm
tt -20cm = temperature -20cm
tt -100cm = temperature -100cm
ff = wind speed
fx = gusts
dd = wind direction
vv = visibility
sd = sunshine duration
rr = precipitation

Next stations